createdAt,value
2018-11-26T00:00:23.157Z,8.07
2018-11-26T00:02:50.674Z,12.47
2018-11-26T00:05:18.041Z,9.73
2018-11-26T00:07:45.472Z,9.90
2018-11-26T00:10:24.243Z,8.93
2018-11-26T00:12:51.670Z,9.87
2018-11-26T00:15:19.116Z,8.77
2018-11-26T00:17:46.525Z,8.77
2018-11-26T00:20:13.952Z,9.93
2018-11-26T00:22:41.345Z,8.67
2018-11-26T00:25:08.785Z,9.50
2018-11-26T00:27:36.197Z,10.93
2018-11-26T00:30:03.767Z,9.47
2018-11-26T00:32:31.178Z,9.07
2018-11-26T00:34:58.577Z,11.10
2018-11-26T00:37:26.038Z,8.77
2018-11-26T00:39:53.447Z,11.60
2018-11-26T00:42:20.839Z,11.97
2018-11-26T00:44:48.280Z,11.07
2018-11-26T00:47:15.718Z,11.03
2018-11-26T00:49:43.159Z,11.70
2018-11-26T00:52:10.539Z,11.97
2018-11-26T00:54:38.002Z,12.20
2018-11-26T00:57:05.429Z,13.07
2018-11-26T00:59:32.926Z,13.10
2018-11-26T01:02:00.347Z,11.27
2018-11-26T01:04:27.757Z,10.10
2018-11-26T01:06:55.165Z,11.23
2018-11-26T01:09:22.623Z,11.17
2018-11-26T01:11:50.008Z,10.00
2018-11-26T01:14:17.442Z,10.47
2018-11-26T01:16:44.835Z,8.97
2018-11-26T01:19:12.278Z,9.40
2018-11-26T01:21:39.642Z,11.37
2018-11-26T01:24:07.072Z,9.97
2018-11-26T01:26:34.451Z,8.90
2018-11-26T01:29:01.870Z,9.93
2018-11-26T01:31:29.241Z,9.87
2018-11-26T01:33:56.678Z,10.57
2018-11-26T01:36:24.054Z,11.87
2018-11-26T01:38:51.461Z,11.67
2018-11-26T01:41:18.889Z,11.50
2018-11-26T01:43:46.311Z,8.83
2018-11-26T01:46:13.742Z,8.03
2018-11-26T01:48:41.172Z,10.70
2018-11-26T01:51:08.572Z,11.10
2018-11-26T01:53:35.958Z,11.37
2018-11-26T01:56:03.393Z,10.87
2018-11-26T01:58:30.795Z,11.93
2018-11-26T02:00:58.161Z,11.40
2018-11-26T02:03:25.628Z,9.37
2018-11-26T02:05:53.048Z,9.03
2018-11-26T02:08:20.458Z,10.57
2018-11-26T02:10:47.869Z,9.30
2018-11-26T02:13:15.281Z,10.47
2018-11-26T02:15:42.872Z,11.47
2018-11-26T02:18:10.673Z,11.13
2018-11-26T02:20:38.112Z,11.17
2018-11-26T02:23:05.715Z,12.63
2018-11-26T02:25:33.087Z,11.60
2018-11-26T02:28:00.487Z,11.27
2018-11-26T02:30:27.913Z,11.37
2018-11-26T02:32:55.323Z,13.53
2018-11-26T02:35:22.759Z,13.80
2018-11-26T02:37:51.238Z,11.67
2018-11-26T02:40:22.312Z,10.63
2018-11-26T02:42:49.812Z,11.17
2018-11-26T02:45:17.235Z,10.87
2018-11-26T02:47:44.672Z,12.50
2018-11-26T02:50:12.082Z,12.17
2018-11-26T02:52:39.479Z,11.20
2018-11-26T02:55:06.922Z,11.50
2018-11-26T02:57:34.346Z,10.57
2018-11-26T03:00:01.808Z,11.00
2018-11-26T03:02:29.219Z,9.17
2018-11-26T03:04:56.596Z,11.03
2018-11-26T03:07:24.008Z,11.97
2018-11-26T03:09:52.309Z,10.50
2018-11-26T03:12:19.702Z,11.33
2018-11-26T03:14:47.144Z,11.53
2018-11-26T03:17:14.552Z,11.60
2018-11-26T03:19:41.986Z,12.67
2018-11-26T03:22:09.341Z,10.03
2018-11-26T03:24:36.773Z,12.80
2018-11-26T03:27:04.596Z,12.23
2018-11-26T03:29:32.038Z,13.20
2018-11-26T03:31:59.429Z,12.57
2018-11-26T03:34:26.857Z,12.60
2018-11-26T03:36:54.281Z,13.57
2018-11-26T03:39:21.693Z,13.27
2018-11-26T03:41:49.133Z,15.20
2018-11-26T03:44:16.508Z,15.30
2018-11-26T03:46:43.883Z,13.93
2018-11-26T03:49:11.288Z,15.00
2018-11-26T03:51:38.729Z,14.30
2018-11-26T03:54:06.188Z,14.77
2018-11-26T03:56:33.615Z,13.40
2018-11-26T03:59:01.029Z,18.33
2018-11-26T04:01:28.454Z,12.90
2018-11-26T04:03:55.829Z,15.20
2018-11-26T04:06:23.252Z,14.17
2018-11-26T04:08:50.707Z,15.70
2018-11-26T04:11:18.144Z,13.83
2018-11-26T04:13:45.572Z,13.80
2018-11-26T04:16:13.022Z,14.77
2018-11-26T04:18:40.434Z,14.73
2018-11-26T04:21:07.861Z,15.67
2018-11-26T04:23:35.292Z,17.37
2018-11-26T04:26:02.716Z,15.63
2018-11-26T04:28:30.158Z,14.30
2018-11-26T04:30:57.602Z,15.83
2018-11-26T04:33:25.002Z,14.70
2018-11-26T04:35:52.344Z,14.43
2018-11-26T04:38:19.789Z,15.70
2018-11-26T04:40:47.243Z,14.30
2018-11-26T04:43:14.647Z,15.17
2018-11-26T04:45:42.068Z,17.33
2018-11-26T04:48:09.486Z,21.40
2018-11-26T04:50:36.857Z,17.47
2018-11-26T04:53:04.541Z,14.77
2018-11-26T04:55:32.006Z,11.47
2018-11-26T04:57:59.394Z,11.53
2018-11-26T05:00:26.829Z,12.17
2018-11-26T05:02:54.268Z,11.03
2018-11-26T05:05:21.696Z,11.40
2018-11-26T05:07:49.073Z,20.30
2018-11-26T05:10:16.503Z,13.10
2018-11-26T05:12:43.922Z,15.60
2018-11-26T05:15:12.302Z,13.00
2018-11-26T05:17:39.709Z,10.03
2018-11-26T05:20:10.158Z,10.10
2018-11-26T05:22:37.564Z,10.23
2018-11-26T05:25:06.903Z,10.87
2018-11-26T05:27:34.298Z,10.80
2018-11-26T05:30:01.730Z,9.60
2018-11-26T05:32:29.163Z,11.47
2018-11-26T05:34:56.592Z,13.50
2018-11-26T05:37:23.963Z,14.00
2018-11-26T05:39:51.416Z,15.27
2018-11-26T05:42:18.832Z,14.47
2018-11-26T05:44:46.256Z,11.90
2018-11-26T05:47:13.675Z,10.20
2018-11-26T05:49:41.088Z,9.23
2018-11-26T05:52:08.538Z,10.57
2018-11-26T05:54:35.996Z,9.63
2018-11-26T05:57:03.413Z,9.03
2018-11-26T05:59:30.820Z,10.80
2018-11-26T06:01:58.297Z,10.77
2018-11-26T06:04:25.744Z,11.40
2018-11-26T06:06:53.785Z,11.63
2018-11-26T06:09:21.188Z,9.80
2018-11-26T06:11:48.602Z,10.70
2018-11-26T06:14:16.013Z,11.30
2018-11-26T06:16:43.409Z,11.60
2018-11-26T06:19:10.834Z,11.27
2018-11-26T06:21:38.259Z,11.57
2018-11-26T06:24:06.017Z,12.07
2018-11-26T06:26:33.387Z,11.20
2018-11-26T06:29:00.807Z,11.97
2018-11-26T06:31:28.198Z,12.33
2018-11-26T06:33:55.625Z,11.27
2018-11-26T06:36:23.053Z,12.17
2018-11-26T06:38:50.525Z,9.90
2018-11-26T06:41:17.920Z,11.80
2018-11-26T06:43:45.338Z,17.17
2018-11-26T06:46:12.791Z,12.83
2018-11-26T06:48:40.223Z,15.63
2018-11-26T06:51:07.602Z,11.40
2018-11-26T06:53:35.077Z,11.73
2018-11-26T06:56:02.494Z,10.50
2018-11-26T06:58:29.938Z,9.93
2018-11-26T07:00:57.353Z,9.90
2018-11-26T07:03:24.762Z,11.23
2018-11-26T07:05:52.822Z,11.73
2018-11-26T07:08:20.188Z,9.77
2018-11-26T07:10:47.634Z,10.30
2018-11-26T07:13:15.085Z,10.37
2018-11-26T07:15:42.548Z,11.33
2018-11-26T07:18:09.917Z,10.83
2018-11-26T07:20:37.368Z,11.33
2018-11-26T07:23:04.954Z,13.43
2018-11-26T07:25:32.368Z,10.43
2018-11-26T07:27:59.742Z,11.53
2018-11-26T07:30:28.849Z,10.53
2018-11-26T07:32:56.214Z,9.67
2018-11-26T07:35:23.610Z,10.97
2018-11-26T07:37:51.035Z,9.43
2018-11-26T07:40:20.482Z,14.10
2018-11-26T07:42:49.859Z,11.33
2018-11-26T07:45:17.264Z,7.53
2018-11-26T07:47:44.733Z,9.67
2018-11-26T07:50:13.278Z,8.37
2018-11-26T07:52:40.680Z,10.17
2018-11-26T07:55:10.774Z,8.67
2018-11-26T07:57:38.292Z,12.50
2018-11-26T08:00:11.083Z,8.50
2018-11-26T08:02:38.528Z,12.27
2018-11-26T08:05:07.035Z,13.17
2018-11-26T08:07:34.513Z,31.77
2018-11-26T08:10:01.958Z,12.33
2018-11-26T08:12:29.558Z,12.37
2018-11-26T08:14:57.015Z,14.03
2018-11-26T08:17:24.398Z,14.20
2018-11-26T08:19:51.773Z,13.97
2018-11-26T08:22:19.189Z,12.47
2018-11-26T08:24:46.584Z,16.17
2018-11-26T08:27:14.014Z,14.50
2018-11-26T08:29:41.565Z,13.97
2018-11-26T08:32:09.204Z,11.93
2018-11-26T08:34:36.662Z,12.07
2018-11-26T08:37:05.644Z,12.90
2018-11-26T08:39:36.282Z,10.60
2018-11-26T08:42:08.450Z,11.80
2018-11-26T08:44:40.358Z,12.87
2018-11-26T08:47:13.464Z,11.20
2018-11-26T08:49:40.853Z,9.77
2018-11-26T08:52:08.263Z,11.77
2018-11-26T08:54:35.695Z,13.03
2018-11-26T08:57:03.159Z,13.67
2018-11-26T08:59:30.634Z,11.87
2018-11-26T09:02:00.063Z,10.27
2018-11-26T09:04:30.929Z,11.87
2018-11-26T09:06:58.358Z,10.87
2018-11-26T09:09:26.734Z,12.37
2018-11-26T09:11:53.173Z,11.90
2018-11-26T09:14:20.622Z,12.23
2018-11-26T09:16:48.054Z,11.33
2018-11-26T09:19:15.526Z,8.83
2018-11-26T09:21:42.976Z,9.60
2018-11-26T09:24:10.396Z,8.30
2018-11-26T09:26:37.793Z,9.93
2018-11-26T09:29:05.594Z,9.67
2018-11-26T09:31:33.068Z,8.83
2018-11-26T09:34:00.490Z,9.23
2018-11-26T09:36:27.878Z,10.30
2018-11-26T09:38:55.319Z,8.30
2018-11-26T09:41:22.762Z,9.03
2018-11-26T09:43:50.155Z,8.57
2018-11-26T09:46:17.594Z,9.47
2018-11-26T09:48:44.982Z,9.85
2018-11-26T09:51:14.353Z,8.00
2018-11-26T09:53:39.878Z,9.57
2018-11-26T09:56:07.327Z,9.70
2018-11-26T09:58:34.736Z,8.97
2018-11-26T10:01:02.225Z,9.70
2018-11-26T10:03:29.628Z,9.67
2018-11-26T10:05:57.029Z,9.30
2018-11-26T10:08:24.493Z,9.57
2018-11-26T10:10:51.919Z,10.20
2018-11-26T10:13:19.375Z,10.27
2018-11-26T10:15:46.814Z,13.30
2018-11-26T10:18:14.256Z,10.50
2018-11-26T10:20:41.712Z,15.10
2018-11-26T10:23:09.230Z,12.13
2018-11-26T10:25:36.645Z,10.77
2018-11-26T10:28:04.248Z,9.63
2018-11-26T10:30:31.658Z,11.73
2018-11-26T10:32:59.073Z,13.87
2018-11-26T10:35:26.583Z,10.53
2018-11-26T10:37:54.066Z,11.77
2018-11-26T10:40:24.345Z,11.80
2018-11-26T10:42:51.834Z,11.37
2018-11-26T10:45:20.213Z,11.53
2018-11-26T10:47:47.664Z,12.57
2018-11-26T10:50:17.187Z,12.13
2018-11-26T10:52:54.384Z,10.80
2018-11-26T10:55:23.308Z,11.80
2018-11-26T10:57:50.756Z,14.40
2018-11-26T11:00:23.662Z,15.17
2018-11-26T11:02:51.428Z,14.37
2018-11-26T11:05:19.017Z,14.27
2018-11-26T11:07:46.425Z,14.97
2018-11-26T11:10:20.158Z,14.63
2018-11-26T11:12:47.580Z,16.93
2018-11-26T11:15:15.036Z,17.23
2018-11-26T11:17:42.493Z,16.13
2018-11-26T11:20:14.067Z,19.93
2018-11-26T11:22:41.471Z,16.63
2018-11-26T11:25:10.055Z,15.97
2018-11-26T11:27:37.476Z,33.27
2018-11-26T11:30:21.987Z,20.73
2018-11-26T11:32:49.449Z,20.90
2018-11-26T11:35:17.294Z,17.33
2018-11-26T11:37:45.765Z,18.93
2018-11-26T11:40:22.912Z,19.37
2018-11-26T11:42:50.324Z,19.17
2018-11-26T11:45:17.933Z,18.03
2018-11-26T11:47:45.308Z,17.80
2018-11-26T11:50:14.909Z,21.33
2018-11-26T11:52:42.379Z,17.07
2018-11-26T11:55:11.105Z,18.13
2018-11-26T11:57:38.504Z,17.63
2018-11-26T12:00:13.154Z,19.03
2018-11-26T12:02:41.799Z,20.40
2018-11-26T12:05:11.484Z,17.27
2018-11-26T12:07:38.881Z,17.37
2018-11-26T12:10:08.209Z,19.00
2018-11-26T12:12:35.718Z,17.03
2018-11-26T12:15:03.372Z,19.37
2018-11-26T12:17:30.939Z,20.67
2018-11-26T12:19:58.337Z,18.57
2018-11-26T12:22:25.804Z,36.23
2018-11-26T12:24:53.214Z,32.90
2018-11-26T12:27:20.684Z,29.73
2018-11-26T12:29:48.152Z,50.90
2018-11-26T12:32:15.629Z,77.90
2018-11-26T12:34:43.020Z,47.93
2018-11-26T12:37:10.424Z,40.23
2018-11-26T12:39:37.923Z,33.30
2018-11-26T12:42:05.404Z,40.57
2018-11-26T12:44:44.788Z,38.63
2018-11-26T12:47:12.203Z,46.33
2018-11-26T12:49:39.644Z,45.40
2018-11-26T12:52:07.095Z,33.77
2018-11-26T12:54:34.502Z,40.73
2018-11-26T12:57:01.967Z,29.90
2018-11-26T12:59:29.397Z,26.93
2018-11-26T13:01:56.825Z,25.60
2018-11-26T13:04:24.260Z,29.23
2018-11-26T13:06:51.688Z,25.17
2018-11-26T13:09:19.084Z,26.60
2018-11-26T13:11:46.508Z,27.87
2018-11-26T13:14:13.990Z,31.97
2018-11-26T13:16:41.377Z,31.80
2018-11-26T13:19:08.835Z,30.87
2018-11-26T13:21:36.260Z,30.33
2018-11-26T13:24:03.907Z,26.80
2018-11-26T13:26:31.393Z,29.10
2018-11-26T13:28:58.779Z,27.63
2018-11-26T13:31:26.228Z,24.80
2018-11-26T13:33:53.612Z,27.80
2018-11-26T13:36:21.073Z,28.13
2018-11-26T13:38:48.573Z,26.73
2018-11-26T13:41:16.018Z,28.07
2018-11-26T13:43:43.435Z,27.37
2018-11-26T13:46:10.889Z,26.33
2018-11-26T13:48:38.328Z,24.77
2018-11-26T13:51:06.044Z,25.17
2018-11-26T13:53:33.435Z,27.27
2018-11-26T13:56:00.929Z,27.90
2018-11-26T13:58:28.377Z,24.10
2018-11-26T14:00:55.839Z,23.30
2018-11-26T14:03:23.253Z,24.57
2018-11-26T14:05:50.611Z,26.43
2018-11-26T14:08:18.031Z,25.50
2018-11-26T14:10:45.436Z,36.30
2018-11-26T14:13:14.108Z,25.73
2018-11-26T14:15:41.525Z,22.70
2018-11-26T14:18:09.031Z,22.10
2018-11-26T14:20:36.489Z,17.97
2018-11-26T14:23:04.180Z,16.10
2018-11-26T14:25:31.613Z,18.20
2018-11-26T14:27:59.026Z,18.87
2018-11-26T14:30:27.265Z,17.30
2018-11-26T14:32:54.940Z,17.13
2018-11-26T14:35:22.400Z,17.30
2018-11-26T14:37:54.958Z,22.23
2018-11-26T14:40:25.745Z,21.50
2018-11-26T14:42:53.190Z,17.53
2018-11-26T14:45:20.697Z,14.03
2018-11-26T14:47:57.556Z,17.07
2018-11-26T14:50:25.003Z,15.13
2018-11-26T14:52:52.430Z,14.73
2018-11-26T14:55:28.049Z,16.87
2018-11-26T14:57:55.510Z,14.73
2018-11-26T15:00:22.994Z,16.50
2018-11-26T15:02:50.482Z,15.23
2018-11-26T15:05:17.989Z,14.83
2018-11-26T15:07:45.586Z,16.43
2018-11-26T15:10:15.031Z,15.90
2018-11-26T15:12:42.567Z,18.03
2018-11-26T15:15:11.948Z,16.83
2018-11-26T15:17:39.998Z,23.10
2018-11-26T15:20:10.362Z,26.57
2018-11-26T15:22:37.881Z,18.63
2018-11-26T15:25:07.157Z,26.27
2018-11-26T15:27:34.615Z,16.20
2018-11-26T15:30:02.133Z,20.40
2018-11-26T15:32:29.584Z,21.67
2018-11-26T15:34:56.954Z,19.87
2018-11-26T15:37:24.467Z,17.27
2018-11-26T15:39:51.860Z,16.53
2018-11-26T15:42:19.341Z,19.87
2018-11-26T15:44:46.724Z,19.10
2018-11-26T15:47:14.155Z,17.83
2018-11-26T15:49:42.301Z,17.33
2018-11-26T15:52:09.092Z,15.97
2018-11-26T15:54:36.526Z,19.17
2018-11-26T15:57:03.965Z,20.33
2018-11-26T15:59:31.418Z,24.50
2018-11-26T16:01:58.891Z,20.07
2018-11-26T16:04:26.320Z,19.53
2018-11-26T16:06:53.826Z,22.03
2018-11-26T16:09:21.255Z,20.23
2018-11-26T16:11:48.731Z,23.03
2018-11-26T16:14:16.227Z,22.67
2018-11-26T16:16:43.666Z,34.50
2018-11-26T16:19:11.149Z,29.17
2018-11-26T16:21:38.559Z,27.10
2018-11-26T16:24:06.375Z,22.53
2018-11-26T16:26:33.779Z,21.40
2018-11-26T16:29:01.286Z,18.20
2018-11-26T16:31:28.697Z,17.27
2018-11-26T16:33:56.120Z,21.63
2018-11-26T16:36:23.534Z,22.83
2018-11-26T16:38:51.074Z,21.30
2018-11-26T16:41:18.555Z,17.53
2018-11-26T16:43:46.042Z,22.00
2018-11-26T16:46:13.670Z,22.77
2018-11-26T16:48:41.218Z,18.17
2018-11-26T16:51:08.660Z,23.63
2018-11-26T16:53:36.119Z,22.13
2018-11-26T16:56:03.550Z,27.00
2018-11-26T16:58:30.974Z,17.97
2018-11-26T17:00:58.504Z,19.60
2018-11-26T17:03:25.924Z,18.10
2018-11-26T17:05:53.351Z,24.87
2018-11-26T17:08:20.835Z,23.57
2018-11-26T17:10:48.292Z,22.27
2018-11-26T17:13:15.765Z,21.17
2018-11-26T17:15:43.237Z,17.90
2018-11-26T17:18:10.670Z,16.93
2018-11-26T17:20:38.250Z,19.70
2018-11-26T17:23:06.278Z,22.33
2018-11-26T17:25:33.697Z,22.83
2018-11-26T17:28:01.155Z,25.03
2018-11-26T17:30:28.596Z,22.17
2018-11-26T17:33:00.322Z,20.37
2018-11-26T17:35:28.271Z,17.07
2018-11-26T17:37:55.696Z,21.57
2018-11-26T17:40:23.847Z,20.87
2018-11-26T17:42:51.705Z,26.00
2018-11-26T17:45:19.759Z,23.30
2018-11-26T17:47:51.260Z,26.90
2018-11-26T17:50:23.243Z,25.63
2018-11-26T17:52:50.724Z,23.90
2018-11-26T17:55:18.140Z,37.73
2018-11-26T17:57:45.619Z,35.03
2018-11-26T18:00:14.911Z,34.03
2018-11-26T18:02:43.380Z,34.17
2018-11-26T18:05:13.702Z,34.70
2018-11-26T18:07:41.207Z,29.50
2018-11-26T18:10:12.655Z,28.70
2018-11-26T18:12:40.361Z,27.63
2018-11-26T18:15:11.542Z,34.90
2018-11-26T18:17:39.079Z,35.23
2018-11-26T18:20:11.148Z,52.17
2018-11-26T18:22:38.585Z,29.90
2018-11-26T18:25:07.775Z,24.27
2018-11-26T18:27:35.499Z,29.67
2018-11-26T18:30:05.535Z,21.77
2018-11-26T18:32:32.984Z,19.13
2018-11-26T18:35:00.476Z,18.07
2018-11-26T18:37:27.917Z,19.70
2018-11-26T18:39:55.441Z,21.00
2018-11-26T18:42:22.906Z,20.77
2018-11-26T18:44:50.403Z,20.77
2018-11-26T18:47:17.852Z,21.30
2018-11-26T18:49:45.305Z,26.17
2018-11-26T18:52:12.832Z,27.17
2018-11-26T18:54:41.132Z,26.53
2018-11-26T18:57:09.108Z,22.23
2018-11-26T18:59:36.546Z,23.53
2018-11-26T19:02:04.972Z,19.00
2018-11-26T19:04:33.232Z,18.83
2018-11-26T19:07:01.070Z,17.37
2018-11-26T19:09:28.554Z,16.93
2018-11-26T19:11:56.041Z,20.50
2018-11-26T19:14:24.577Z,21.17
2018-11-26T19:16:52.266Z,21.47
2018-11-26T19:19:19.771Z,19.43
2018-11-26T19:21:47.407Z,21.10
2018-11-26T19:24:14.943Z,19.67
2018-11-26T19:26:42.442Z,23.57
2018-11-26T19:29:09.887Z,20.67
2018-11-26T19:31:38.147Z,20.77
2018-11-26T19:34:05.781Z,20.43
2018-11-26T19:36:33.349Z,23.27
2018-11-26T19:39:00.850Z,23.20
2018-11-26T19:41:28.328Z,25.73
2018-11-26T19:43:55.802Z,26.07
2018-11-26T19:46:23.278Z,28.63
2018-11-26T19:48:50.919Z,21.23
2018-11-26T19:51:18.371Z,18.70
2018-11-26T19:53:45.838Z,21.03
2018-11-26T19:56:13.281Z,25.20
2018-11-26T19:58:40.794Z,26.63
2018-11-26T20:01:08.294Z,30.83
2018-11-26T20:03:38.117Z,30.20
2018-11-26T20:06:23.723Z,22.30
2018-11-26T20:08:52.797Z,22.07
2018-11-26T20:11:20.292Z,34.70
2018-11-26T20:13:47.782Z,26.50
2018-11-26T20:16:27.367Z,27.27
2018-11-26T20:18:54.792Z,23.63
2018-11-26T20:21:22.344Z,28.17
2018-11-26T20:23:49.831Z,52.23
2018-11-26T20:26:17.326Z,59.63
2018-11-26T20:28:44.769Z,82.33
2018-11-26T20:31:12.256Z,46.17
2018-11-26T20:33:39.732Z,40.00
2018-11-26T20:36:09.100Z,28.60
2018-11-26T20:38:36.672Z,42.03
2018-11-26T20:41:04.781Z,55.93
2018-11-26T20:43:32.214Z,34.57
2018-11-26T20:45:59.760Z,27.00
2018-11-26T20:48:30.506Z,25.63
2018-11-26T20:50:54.741Z,25.13
2018-11-26T20:53:24.959Z,22.73
2018-11-26T20:55:52.474Z,22.93
2018-11-26T20:58:20.025Z,22.03
2018-11-26T21:00:47.513Z,21.13
2018-11-26T21:03:14.992Z,23.67
2018-11-26T21:05:42.417Z,24.47
2018-11-26T21:08:09.894Z,21.83
2018-11-26T21:10:37.357Z,22.77
2018-11-26T21:13:04.919Z,20.17
2018-11-26T21:15:32.324Z,19.07
2018-11-26T21:18:01.075Z,20.83
2018-11-26T21:20:36.166Z,18.27
2018-11-26T21:23:06.031Z,20.27
2018-11-26T21:25:33.490Z,18.60
2018-11-26T21:28:00.986Z,23.93
2018-11-26T21:30:28.465Z,19.63
2018-11-26T21:32:55.890Z,17.97
2018-11-26T21:35:23.302Z,17.17
2018-11-26T21:37:51.772Z,19.63
2018-11-26T21:40:23.549Z,27.80
2018-11-26T21:42:51.677Z,18.27
2018-11-26T21:45:23.623Z,19.17
2018-11-26T21:47:51.032Z,18.37
2018-11-26T21:50:18.448Z,16.80
2018-11-26T21:52:46.057Z,16.30
2018-11-26T21:55:15.614Z,17.30
2018-11-26T21:57:43.115Z,18.03
2018-11-26T22:00:21.975Z,15.67
2018-11-26T22:02:50.226Z,12.93
2018-11-26T22:05:17.693Z,13.67
2018-11-26T22:07:45.772Z,14.83
2018-11-26T22:10:17.558Z,13.60
2018-11-26T22:12:46.387Z,14.07
2018-11-26T22:15:14.037Z,13.67
2018-11-26T22:17:42.165Z,13.10
2018-11-26T22:20:12.216Z,13.83
2018-11-26T22:22:39.857Z,13.83
2018-11-26T22:25:08.822Z,14.77
2018-11-26T22:27:36.459Z,15.10
2018-11-26T22:30:08.067Z,15.07
2018-11-26T22:32:36.036Z,14.90
2018-11-26T22:35:03.516Z,14.13
2018-11-26T22:37:30.950Z,17.63
2018-11-26T22:39:58.345Z,15.53
2018-11-26T22:42:25.758Z,15.90
2018-11-26T22:44:53.192Z,24.70
2018-11-26T22:47:20.747Z,17.87
2018-11-26T22:49:48.272Z,17.13
2018-11-26T22:52:15.901Z,14.50
2018-11-26T22:54:43.371Z,14.37
2018-11-26T22:57:10.830Z,13.47
2018-11-26T22:59:38.225Z,13.47
2018-11-26T23:02:05.872Z,14.30
2018-11-26T23:04:33.283Z,15.40
2018-11-26T23:07:00.776Z,14.83
2018-11-26T23:09:28.190Z,15.87
2018-11-26T23:11:55.632Z,11.17
2018-11-26T23:14:23.137Z,12.40
2018-11-26T23:16:50.628Z,14.23
2018-11-26T23:19:18.043Z,17.33
2018-11-26T23:21:45.512Z,18.50
2018-11-26T23:24:12.898Z,15.43
2018-11-26T23:26:40.336Z,13.20
2018-11-26T23:29:08.757Z,12.67
2018-11-26T23:31:36.191Z,13.43
2018-11-26T23:34:04.982Z,9.93
2018-11-26T23:36:32.530Z,10.73
2018-11-26T23:39:00.020Z,9.83
2018-11-26T23:41:27.905Z,9.50
2018-11-26T23:43:55.353Z,10.07
2018-11-26T23:46:23.119Z,10.33
2018-11-26T23:48:50.585Z,10.93
2018-11-26T23:51:18.640Z,9.67
2018-11-26T23:53:46.164Z,9.50
2018-11-26T23:56:13.611Z,10.20
2018-11-26T23:58:41.972Z,11.83
